Time;durP1;ratioP1;P1;durP2;ratioP2;P2;SDS_P1;SDS_P2;PMS_P1;PMS_P2;Temp;Humidity;BMP_temperature;BMP_pressure;BME280_temperature;BME280_humidity;BME280_pressure;Samples;Min_cycle;Max_cycle;Signal;HPM_P1;HPM_P2
2023/04/03 00:00:43;;;;;;;5.63;2.65;;;;;;;1.93;82.77;100432.53;5100543;28;20461;-59
2023/04/03 00:03:09;;;;;;;6.63;2.83;;;;;;;2.07;85.98;100423.19;5097890;28;20027;-59
2023/04/03 00:05:35;;;;;;;8.52;2.63;;;;;;;2.03;83.77;100438.53;5097204;28;20085;-59
2023/04/03 00:08:01;;;;;;;5.82;2.40;;;;;;;2.06;82.17;100437.41;5096760;28;20474;-59
2023/04/03 00:10:27;;;;;;;5.05;2.42;;;;;;;2.23;84.98;100433.84;5090589;28;20031;-59
2023/04/03 00:12:53;;;;;;;5.13;2.60;;;;;;;2.19;83.45;100429.03;5090216;28;20024;-58
2023/04/03 00:15:18;;;;;;;7.60;2.30;;;;;;;2.22;82.56;100429.56;5102627;28;20047;-58
2023/04/03 00:17:44;;;;;;;4.68;2.50;;;;;;;2.20;81.15;100430.69;5100765;28;20036;-59
2023/04/03 00:20:09;;;;;;;7.28;2.75;;;;;;;2.21;83.38;100421.78;5101156;28;20028;-59
2023/04/03 00:22:35;;;;;;;4.97;2.60;;;;;;;2.20;83.64;100428.03;5091346;28;20024;-59
2023/04/03 00:25:00;;;;;;;6.70;2.90;;;;;;;2.19;82.57;100421.09;5099446;28;20028;-59
2023/04/03 00:27:25;;;;;;;6.90;2.85;;;;;;;2.20;83.29;100426.25;5099254;28;20097;-59
2023/04/03 00:29:51;;;;;;;7.88;3.10;;;;;;;2.22;83.38;100421.63;5102905;28;20188;-59
2023/04/03 00:32:16;;;;;;;9.75;3.05;;;;;;;2.25;83.73;100425.75;5096067;28;20042;-59
2023/04/03 00:34:42;;;;;;;7.97;3.03;;;;;;;2.22;86.52;100424.28;5094324;28;20043;-59
2023/04/03 00:37:07;;;;;;;5.03;2.88;;;;;;;2.20;87.26;100428.03;5097560;28;20048;-59
2023/04/03 00:39:33;;;;;;;6.72;3.05;;;;;;;2.20;85.59;100423.59;5090277;27;20034;-59
2023/04/03 00:41:58;;;;;;;4.90;2.78;;;;;;;2.27;86.17;100419.31;5091468;28;20039;-60
2023/04/03 00:44:33;;;;;;;4.25;2.72;;;;;;;2.30;84.52;100419.00;5098036;28;20100;-59
2023/04/03 00:46:58;;;;;;;9.25;2.80;;;;;;;2.34;87.66;100417.69;5093758;28;20408;-59
2023/04/03 00:49:24;;;;;;;6.78;2.80;;;;;;;2.26;88.19;100422.13;5090267;28;20477;-59
2023/04/03 00:51:49;;;;;;;5.13;2.80;;;;;;;2.24;91.25;100413.50;5092449;28;20024;-59
2023/04/03 00:54:15;;;;;;;4.68;2.90;;;;;;;2.15;92.39;100410.00;5101947;28;20466;-59
2023/04/03 00:56:41;;;;;;;4.53;2.70;;;;;;;2.19;94.46;100406.03;5088403;28;20020;-59
2023/04/03 00:59:10;;;;;;;5.97;3.55;;;;;;;2.28;95.05;100410.38;5095925;28;20035;-60
2023/04/03 01:01:35;;;;;;;5.95;3.80;;;;;;;2.21;90.20;100411.19;5093231;28;20095;-59
2023/04/03 01:04:02;;;;;;;5.57;3.00;;;;;;;2.19;88.94;100403.41;5092721;28;20490;-59
2023/04/03 01:06:31;;;;;;;7.18;3.28;;;;;;;2.26;87.16;100407.06;5097613;28;20042;-59
2023/04/03 01:08:57;;;;;;;5.72;3.22;;;;;;;2.28;87.93;100404.28;5092692;28;20490;-59
2023/04/03 01:11:22;;;;;;;5.35;2.78;;;;;;;2.30;83.54;100397.84;5092003;28;20031;-58
2023/04/03 01:13:48;;;;;;;7.00;3.13;;;;;;;2.47;82.32;100403.16;5102666;28;20120;-59
2023/04/03 01:16:14;;;;;;;6.32;3.20;;;;;;;2.61;82.34;100405.19;5096381;28;20044;-59
2023/04/03 01:18:40;;;;;;;4.97;2.95;;;;;;;2.51;81.50;100400.03;5099339;28;20336;-59
2023/04/03 01:21:36;;;;;;;6.47;2.60;;;;;;;2.52;84.95;100399.06;5098257;28;20016;-59
2023/04/03 01:24:11;;;;;;;5.22;2.75;;;;;;;2.45;83.39;100398.06;5097366;28;20038;-59
2023/04/03 01:26:36;;;;;;;5.80;2.90;;;;;;;2.45;82.53;100390.13;5096753;28;20406;-59
2023/04/03 01:29:02;;;;;;;6.65;2.65;;;;;;;2.50;84.73;100397.56;5102836;28;20055;-59
2023/04/03 01:31:35;;;;;;;5.10;2.58;;;;;;;2.47;81.06;100400.50;5097705;28;20063;-59
2023/04/03 01:34:01;;;;;;;5.22;2.65;;;;;;;2.45;87.01;100395.41;5101125;28;20105;-60
2023/04/03 01:36:29;;;;;;;7.88;3.38;;;;;;;2.55;88.10;100404.03;5093600;28;20445;-59
2023/04/03 01:38:55;;;;;;;7.70;3.03;;;;;;;2.60;90.02;100403.56;5096069;28;20114;-60
2023/04/03 01:41:20;;;;;;;7.65;2.92;;;;;;;2.58;86.62;100402.88;5100797;28;20475;-59
2023/04/03 01:43:47;;;;;;;6.32;3.08;;;;;;;2.50;83.55;100405.50;5096224;28;20401;-59
2023/04/03 01:46:12;;;;;;;5.25;2.72;;;;;;;2.44;82.75;100398.19;5098997;28;20043;-59
2023/04/03 01:48:38;;;;;;;5.28;2.70;;;;;;;2.41;81.61;100402.00;5098366;28;20028;-59
2023/04/03 01:51:03;;;;;;;5.70;2.75;;;;;;;2.41;82.16;100395.88;5093954;28;20073;-59
2023/04/03 01:53:29;;;;;;;3.58;2.10;;;;;;;2.38;82.49;100400.50;5099498;28;20031;-59
2023/04/03 01:55:54;;;;;;;6.43;2.40;;;;;;;2.36;81.95;100397.19;5101682;28;20035;-60
2023/04/03 01:58:20;;;;;;;5.97;2.72;;;;;;;2.44;84.21;100400.84;5102774;28;20038;-59
2023/04/03 02:00:45;;;;;;;5.85;2.50;;;;;;;2.40;81.74;100402.16;5095824;28;20035;-59
2023/04/03 02:03:11;;;;;;;4.88;2.60;;;;;;;2.41;82.16;100395.88;5100599;28;20411;-59
2023/04/03 02:05:36;;;;;;;4.70;3.17;;;;;;;2.36;81.99;100399.00;5099089;28;20036;-59
2023/04/03 02:08:01;;;;;;;4.65;2.40;;;;;;;2.37;84.01;100393.56;5101919;28;20035;-60
2023/04/03 02:10:27;;;;;;;5.68;2.70;;;;;;;2.32;84.71;100393.22;5104660;28;20023;-59
2023/04/03 02:12:52;;;;;;;5.38;3.10;;;;;;;2.32;83.38;100395.88;5095329;28;20040;-59
2023/04/03 02:15:18;;;;;;;8.45;3.30;;;;;;;2.33;82.71;100396.69;5089362;28;20074;-59
2023/04/03 02:17:43;;;;;;;7.65;2.88;;;;;;;2.34;82.15;100393.03;5103123;28;20538;-59
2023/04/03 02:20:09;;;;;;;8.73;2.78;;;;;;;2.36;81.61;100388.41;5101550;28;20081;-59
2023/04/03 02:22:34;;;;;;;6.75;2.72;;;;;;;2.34;81.60;100393.88;5101855;28;20432;-59
2023/04/03 02:25:00;;;;;;;4.00;2.40;;;;;;;2.35;81.29;100395.53;5102412;28;20039;-59
2023/04/03 02:27:25;;;;;;;4.25;2.60;;;;;;;2.35;82.18;100400.00;5101325;28;20371;-59
2023/04/03 02:29:51;;;;;;;5.45;2.65;;;;;;;2.40;82.63;100402.16;5100207;28;20080;-60
2023/04/03 02:32:16;;;;;;;4.43;2.50;;;;;;;2.40;82.46;100391.56;5097155;28;20020;-59
2023/04/03 02:34:42;;;;;;;4.63;2.70;;;;;;;2.41;83.02;100395.88;5097368;28;20036;-60
2023/04/03 02:37:07;;;;;;;8.10;3.10;;;;;;;2.39;83.36;100396.03;5097395;28;20051;-59
2023/04/03 02:39:33;;;;;;;5.55;2.80;;;;;;;2.36;82.14;100399.00;5095421;28;20035;-59
2023/04/03 02:41:59;;;;;;;9.55;3.60;;;;;;;2.37;83.93;100400.66;5097743;28;20032;-59
2023/04/03 02:44:24;;;;;;;8.48;3.17;;;;;;;2.32;83.75;100397.66;5096185;28;20083;-59
2023/04/03 02:46:50;;;;;;;6.85;2.78;;;;;;;2.29;82.51;100400.63;5095902;28;20298;-60
2023/04/03 02:49:15;;;;;;;4.53;2.65;;;;;;;2.30;82.80;100405.78;5094362;28;20020;-59
2023/04/03 02:51:41;;;;;;;4.35;2.40;;;;;;;2.28;82.72;100410.38;5097161;28;20470;-59
2023/04/03 02:54:07;;;;;;;3.83;2.30;;;;;;;2.28;82.44;100415.69;5098665;28;20015;-60
2023/04/03 02:56:32;;;;;;;4.90;2.60;;;;;;;2.27;82.90;100413.19;5096805;28;20186;-59
2023/04/03 02:58:57;;;;;;;4.47;2.22;;;;;;;2.27;82.66;100408.75;5097464;28;20039;-60
2023/04/03 03:01:23;;;;;;;6.03;2.60;;;;;;;2.27;83.71;100403.47;5100874;28;20027;-59
2023/04/03 03:03:48;;;;;;;4.95;2.30;;;;;;;2.26;82.81;100400.97;5099310;28;20348;-59
2023/04/03 03:06:16;;;;;;;6.07;2.60;;;;;;;2.25;84.34;100405.44;5093480;28;20497;-59
2023/04/03 03:08:41;;;;;;;4.55;2.50;;;;;;;2.25;83.72;100402.78;5095731;28;20028;-59
2023/04/03 03:11:06;;;;;;;8.20;2.92;;;;;;;2.23;84.11;100403.94;5097150;28;20183;-59
2023/04/03 03:13:32;;;;;;;6.97;3.00;;;;;;;2.19;85.81;100395.47;5091391;28;20339;-59
2023/04/03 03:15:58;;;;;;;5.55;2.40;;;;;;;2.20;87.05;100402.44;5101051;27;20059;-59
2023/04/03 03:18:23;;;;;;;7.47;2.63;;;;;;;2.17;84.94;100392.16;5095190;28;20032;-59
2023/04/03 03:20:55;;;;;;;5.20;2.60;;;;;;;2.26;86.24;100404.44;5091294;28;20080;-60
2023/04/03 03:23:21;;;;;;;8.27;2.58;;;;;;;2.21;85.70;100409.38;5097406;28;20030;-59
2023/04/03 03:25:46;;;;;;;5.82;2.50;;;;;;;2.27;86.81;100403.47;5095145;28;20039;-59
2023/04/03 03:28:12;;;;;;;5.13;2.67;;;;;;;2.23;85.47;100402.09;5093885;28;20051;-60
2023/04/03 03:30:37;;;;;;;5.60;2.70;;;;;;;2.21;86.05;100408.53;5102164;28;20050;-60
2023/04/03 03:33:03;;;;;;;3.35;2.20;;;;;;;2.19;84.82;100411.34;5097112;28;20032;-59
2023/04/03 03:35:28;;;;;;;5.22;2.20;;;;;;;2.15;85.34;100404.72;5097453;28;20024;-59
2023/04/03 03:37:53;;;;;;;6.18;2.55;;;;;;;2.15;86.42;100404.72;5098333;28;20367;-59
2023/04/03 03:40:19;;;;;;;4.97;2.88;;;;;;;2.16;87.81;100403.72;5095042;28;20031;-60
2023/04/03 03:42:44;;;;;;;4.97;2.95;;;;;;;2.14;87.55;100408.34;5092422;28;20016;-59
2023/04/03 03:45:10;;;;;;;7.07;2.80;;;;;;;2.11;89.47;100406.84;5101305;28;20439;-60
2023/04/03 03:47:36;;;;;;;9.73;4.10;;;;;;;2.04;88.61;100407.63;5100540;28;20020;-60
2023/04/03 03:50:02;;;;;;;6.65;3.97;;;;;;;2.04;88.57;100407.63;5096405;28;20895;-60
2023/04/03 03:52:27;;;;;;;16.52;6.07;;;;;;;2.02;86.17;100412.25;5099571;28;20156;-60
2023/04/03 03:54:52;;;;;;;10.50;4.68;;;;;;;2.01;85.26;100416.72;5101317;28;20093;-59
2023/04/03 03:57:18;;;;;;;12.02;5.70;;;;;;;2.00;85.53;100416.88;5095032;28;20043;-59
2023/04/03 03:59:44;;;;;;;10.35;4.80;;;;;;;1.99;85.35;100415.22;5091050;28;20028;-60
2023/04/03 04:02:10;;;;;;;11.80;4.93;;;;;;;1.96;85.96;100410.25;5095803;28;20085;-64
2023/04/03 04:04:36;;;;;;;6.85;4.00;;;;;;;1.95;85.65;100414.72;5096093;28;20527;-60
2023/04/03 04:07:01;;;;;;;7.90;3.85;;;;;;;1.93;85.01;100409.56;5093654;28;20032;-60
2023/04/03 04:09:26;;;;;;;9.02;4.55;;;;;;;1.90;86.19;100412.53;5095941;28;20023;-60
2023/04/03 04:11:52;;;;;;;7.55;3.35;;;;;;;1.88;86.11;100416.31;5094012;28;20058;-60
2023/04/03 04:14:20;;;;;;;8.52;3.80;;;;;;;1.85;86.62;100414.81;5099711;28;20112;-59
2023/04/03 04:16:45;;;;;;;10.20;4.80;;;;;;;1.82;86.75;100419.56;5100313;28;20028;-61
2023/04/03 04:19:11;;;;;;;11.05;5.03;;;;;;;1.78;87.50;100423.53;5096677;28;20500;-59
2023/04/03 04:21:36;;;;;;;10.20;3.95;;;;;;;1.75;87.25;100419.41;5093118;28;20028;-61
2023/04/03 04:24:05;;;;;;;7.10;3.70;;;;;;;1.69;87.28;100420.00;5090518;28;20031;-60
2023/04/03 04:26:30;;;;;;;7.38;3.47;;;;;;;1.65;86.85;100423.97;5098552;27;20028;-60
2023/04/03 04:28:55;;;;;;;7.95;3.17;;;;;;;1.62;86.78;100421.59;5096891;27;20063;-60
2023/04/03 04:31:21;;;;;;;10.52;3.90;;;;;;;1.57;87.56;100423.88;5103888;28;20038;-60
2023/04/03 04:33:46;;;;;;;7.85;3.72;;;;;;;1.54;86.71;100416.28;5099575;28;20051;-60
2023/04/03 04:36:12;;;;;;;8.27;3.88;;;;;;;1.49;86.47;100417.56;5093726;28;20036;-60
2023/04/03 04:38:38;;;;;;;8.75;3.63;;;;;;;1.43;87.51;100426.09;5092994;28;20031;-60
2023/04/03 04:41:03;;;;;;;5.88;3.03;;;;;;;1.38;87.48;100427.56;5094148;28;20494;-60
2023/04/03 04:43:29;;;;;;;10.38;3.90;;;;;;;1.33;88.00;100429.84;5095406;28;20024;-60
2023/04/03 04:46:04;;;;;;;6.65;3.58;;;;;;;1.26;88.88;100429.59;5095323;28;20047;-60
2023/04/03 04:48:30;;;;;;;9.18;2.95;;;;;;;1.22;88.69;100433.53;5096906;28;20462;-60
2023/04/03 04:50:55;;;;;;;7.55;3.40;;;;;;;1.16;89.35;100432.31;5092741;28;20034;-60
2023/04/03 04:53:20;;;;;;;6.05;2.92;;;;;;;1.08;90.16;100427.81;5097317;28;20082;-60
2023/04/03 04:55:46;;;;;;;7.38;3.58;;;;;;;1.07;90.06;100434.09;5096475;28;20055;-60
2023/04/03 04:58:11;;;;;;;9.77;3.90;;;;;;;1.03;91.11;100445.91;5097909;28;20031;-60
2023/04/03 05:00:37;;;;;;;12.27;3.50;;;;;;;0.96;91.38;100439.56;5100238;28;20032;-60
2023/04/03 05:03:02;;;;;;;5.72;2.70;;;;;;;0.89;91.66;100443.78;5099739;28;20027;-60
2023/04/03 05:05:28;;;;;;;6.80;3.03;;;;;;;0.83;91.63;100439.13;5095728;28;20319;-60
2023/04/03 05:07:53;;;;;;;4.75;2.50;;;;;;;0.80;91.91;100447.31;5093779;28;20028;-60
2023/04/03 05:10:19;;;;;;;5.97;2.45;;;;;;;0.76;91.64;100445.97;5098294;28;20019;-60
2023/04/03 05:12:44;;;;;;;7.88;2.67;;;;;;;0.75;91.57;100452.22;5094709;28;20358;-60
2023/04/03 05:15:10;;;;;;;6.03;2.60;;;;;;;0.75;91.49;100454.84;5097373;28;20048;-60
2023/04/03 05:17:35;;;;;;;6.75;2.47;;;;;;;0.69;91.17;100463.38;5092449;28;20028;-60
2023/04/03 05:20:02;;;;;;;8.02;2.63;;;;;;;0.69;91.18;100458.91;5097872;28;20386;-60
2023/04/03 05:22:27;;;;;;;5.90;2.50;;;;;;;0.71;90.90;100464.88;5102256;28;20492;-60
2023/04/03 05:24:53;;;;;;;8.50;2.55;;;;;;;0.82;90.62;100464.69;5095898;28;20145;-60
2023/04/03 05:27:18;;;;;;;7.60;3.03;;;;;;;0.83;90.36;100465.53;5095326;28;20055;-60
2023/04/03 05:29:43;;;;;;;7.13;3.03;;;;;;;0.84;90.71;100468.00;5095197;28;20039;-60
2023/04/03 05:32:10;;;;;;;5.30;2.75;;;;;;;0.84;90.02;100467.16;5095620;28;20028;-60
2023/04/03 05:34:36;;;;;;;4.32;2.25;;;;;;;0.85;89.02;100468.84;5092887;28;20055;-60
2023/04/03 05:37:03;;;;;;;4.60;2.40;;;;;;;0.91;88.30;100470.06;5091885;28;20442;-60
2023/04/03 05:39:28;;;;;;;8.68;2.65;;;;;;;1.56;85.83;100481.19;5094338;28;20446;-60
2023/04/03 05:41:54;;;;;;;7.88;2.63;;;;;;;2.71;79.50;100476.53;5086667;28;20113;-60
2023/04/03 05:44:19;;;;;;;5.97;2.35;;;;;;;3.27;75.43;100485.59;5098905;28;20036;-60
2023/04/03 05:46:45;;;;;;;5.00;2.25;;;;;;;3.76;73.46;100488.22;5099080;28;20088;-60
2023/04/03 05:49:10;;;;;;;2.63;1.77;;;;;;;4.31;69.72;100495.41;5101720;28;20035;-60
2023/04/03 05:51:36;;;;;;;4.70;1.88;;;;;;;4.78;67.35;100488.44;5098250;28;20020;-59
2023/04/03 05:54:34;;;;;;;5.22;1.90;;;;;;;5.62;63.73;100494.69;5095722;28;20081;-60
2023/04/03 05:56:59;;;;;;;8.73;2.60;;;;;;;6.17;62.60;100492.72;5069482;28;20048;-59
2023/04/03 05:59:25;;;;;;;5.65;2.90;;;;;;;6.26;59.87;100488.97;5101047;28;20473;-59
2023/04/03 06:01:50;;;;;;;7.22;2.33;;;;;;;6.82;59.09;100495.63;5095544;28;20071;-59
2023/04/03 06:04:16;;;;;;;6.97;2.00;;;;;;;6.83;58.82;100497.25;5103333;28;20032;-59
2023/04/03 06:06:52;;;;;;;6.43;2.30;;;;;;;6.55;58.21;100511.25;5098114;28;20036;-60
2023/04/03 06:09:19;;;;;;;11.20;2.65;;;;;;;7.02;57.28;100502.00;5097480;28;20032;-60
2023/04/03 06:11:44;;;;;;;6.75;2.35;;;;;;;6.67;58.66;100500.97;5097099;28;20032;-60
2023/04/03 06:14:10;;;;;;;6.10;2.47;;;;;;;7.43;56.37;100501.38;5097735;28;20031;-60
2023/04/03 06:16:36;;;;;;;6.10;2.42;;;;;;;7.66;55.77;100503.03;5100160;28;20034;-59
2023/04/03 06:19:02;;;;;;;6.75;2.85;;;;;;;8.00;54.94;100508.44;5102891;28;20036;-59
2023/04/03 06:21:27;;;;;;;4.65;2.30;;;;;;;8.08;54.53;100512.78;5094591;28;20032;-59
2023/04/03 06:23:52;;;;;;;6.82;2.00;;;;;;;7.64;53.80;100519.25;5095604;28;20031;-59
2023/04/03 06:26:18;;;;;;;5.38;2.28;;;;;;;7.97;54.64;100519.50;5100360;28;20039;-59
2023/04/03 06:28:43;;;;;;;4.50;2.17;;;;;;;8.29;53.10;100521.78;5092790;28;20482;-59
2023/04/03 06:31:09;;;;;;;5.32;2.35;;;;;;;8.23;52.26;100519.88;5101930;28;20028;-60
2023/04/03 06:33:34;;;;;;;4.20;2.17;;;;;;;7.66;53.48;100530.56;5105006;28;20024;-59
2023/04/03 06:36:03;;;;;;;5.30;2.60;;;;;;;7.63;53.95;100530.09;5093163;28;20118;-59
2023/04/03 06:38:28;;;;;;;5.13;2.70;;;;;;;8.18;52.46;100529.28;5100994;28;20096;-59
2023/04/03 06:40:53;;;;;;;5.90;2.47;;;;;;;8.24;53.02;100527.72;5096079;28;20023;-59
2023/04/03 06:43:20;;;;;;;5.38;2.25;;;;;;;8.29;52.20;100535.97;5093109;28;20031;-59
2023/04/03 06:45:45;;;;;;;4.97;2.13;;;;;;;7.30;53.57;100535.94;5099249;28;20023;-59
2023/04/03 06:48:11;;;;;;;6.15;2.03;;;;;;;7.29;53.09;100535.09;5099292;28;20481;-59
2023/04/03 06:50:36;;;;;;;9.13;2.22;;;;;;;7.11;54.34;100546.19;5104710;28;20028;-59
2023/04/03 06:53:03;;;;;;;5.57;2.47;;;;;;;6.95;54.74;100541.06;5095688;28;20028;-59
2023/04/03 06:55:28;;;;;;;4.72;2.25;;;;;;;7.12;53.77;100544.34;5093994;28;20028;-59
2023/04/03 06:57:54;;;;;;;4.20;2.10;;;;;;;6.23;55.68;100539.88;5095223;28;20444;-59
2023/04/03 07:00:20;;;;;;;5.60;2.08;;;;;;;7.59;53.77;100540.34;5098957;28;20035;-59
2023/04/03 07:02:46;;;;;;;3.30;1.90;;;;;;;7.79;51.58;100553.84;5097824;28;20198;-59
2023/04/03 07:05:11;;;;;;;6.30;2.38;;;;;;;7.94;51.55;100527.91;5095843;28;20657;-59
2023/04/03 07:07:37;;;;;;;4.40;2.38;;;;;;;8.52;50.67;100551.75;5103823;28;20042;-59
2023/04/03 07:10:03;;;;;;;2.70;1.77;;;;;;;6.67;52.44;100555.06;5095711;28;20064;-59
2023/04/03 07:12:28;;;;;;;4.43;2.05;;;;;;;7.11;53.56;100553.34;5094798;28;20024;-59
2023/04/03 07:14:54;;;;;;;3.97;1.85;;;;;;;7.08;52.95;100553.72;5100801;28;20361;-59
2023/04/03 07:17:20;;;;;;;3.65;2.08;;;;;;;7.13;53.17;100554.81;5096171;27;20027;-59
2023/04/03 07:19:45;;;;;;;5.97;2.30;;;;;;;7.00;53.97;100549.34;5097787;28;20042;-60
2023/04/03 07:22:11;;;;;;;7.70;2.45;;;;;;;7.39;52.44;100556.16;5095013;28;20378;-60
2023/04/03 07:24:36;;;;;;;6.22;2.33;;;;;;;7.33;52.91;100556.88;5082757;28;20100;-60
2023/04/03 07:27:02;;;;;;;4.80;2.17;;;;;;;6.28;55.48;100551.84;5096131;28;20427;-60
2023/04/03 07:29:28;;;;;;;5.07;2.22;;;;;;;6.52;54.95;100556.91;5102562;28;20093;-60
2023/04/03 07:31:55;;;;;;;6.43;2.20;;;;;;;6.72;54.48;100559.03;5091652;28;20382;-60
2023/04/03 07:34:20;;;;;;;5.25;1.98;;;;;;;6.10;56.34;100553.00;5094317;28;20639;-59
2023/04/03 07:36:46;;;;;;;5.18;2.33;;;;;;;6.16;55.81;100560.25;5096801;28;20146;-60
2023/04/03 07:39:11;;;;;;;7.07;2.05;;;;;;;6.13;56.63;100555.31;5100298;28;20363;-60
2023/04/03 07:41:37;;;;;;;7.82;2.10;;;;;;;6.31;56.56;100560.28;5098176;27;20406;-58
2023/04/03 07:44:02;;;;;;;7.22;2.28;;;;;;;6.63;54.80;100551.09;5096808;28;20535;-60
2023/04/03 07:46:28;;;;;;;7.57;2.22;;;;;;;7.10;54.42;100552.53;5098589;28;20027;-59
2023/04/03 07:48:53;;;;;;;6.07;2.55;;;;;;;6.64;54.54;100552.78;5100101;28;20039;-60
2023/04/03 07:51:19;;;;;;;4.10;1.98;;;;;;;6.40;54.32;100551.19;5096974;28;20390;-60
2023/04/03 07:53:45;;;;;;;9.13;2.20;;;;;;;6.48;55.39;100556.44;5094724;28;20545;-60
2023/04/03 07:56:11;;;;;;;5.50;2.10;;;;;;;6.64;54.70;100552.78;5097652;28;20513;-60
2023/04/03 07:58:37;;;;;;;7.57;2.20;;;;;;;6.42;54.78;100559.03;5097706;28;20048;-60
2023/04/03 08:01:02;;;;;;;7.30;2.28;;;;;;;7.05;54.12;100549.59;5093642;27;20035;-60
2023/04/03 08:03:28;;;;;;;4.72;2.25;;;;;;;7.03;54.40;100558.78;5091430;28;20016;-60
2023/04/03 08:05:54;;;;;;;4.70;2.13;;;;;;;6.50;54.88;100544.78;5092315;28;20553;-60
2023/04/03 08:08:21;;;;;;;4.15;2.00;;;;;;;6.84;54.03;100552.19;5091939;28;20023;-60
2023/04/03 08:10:51;;;;;;;5.25;2.15;;;;;;;6.36;55.11;100573.06;5100592;28;20031;-60
2023/04/03 08:13:16;;;;;;;7.72;2.55;;;;;;;6.26;54.98;100565.31;5081414;28;20020;-60
2023/04/03 08:15:42;;;;;;;6.43;2.25;;;;;;;6.59;53.65;100552.50;5095632;28;20047;-59
2023/04/03 08:18:07;;;;;;;5.03;2.38;;;;;;;5.59;55.21;100563.34;5091633;28;20531;-59
2023/04/03 08:20:32;;;;;;;4.40;2.47;;;;;;;6.53;53.99;100561.22;5095448;28;20028;-60
2023/04/03 08:22:58;;;;;;;8.38;2.13;;;;;;;6.66;53.58;100558.75;5093345;28;20847;-60
2023/04/03 08:25:23;;;;;;;2.67;1.58;;;;;;;6.40;53.39;100558.38;5091976;28;20028;-59
2023/04/03 08:27:49;;;;;;;5.35;2.28;;;;;;;6.53;53.44;100563.88;5093792;28;20517;-60
2023/04/03 08:30:14;;;;;;;4.75;2.00;;;;;;;6.45;52.94;100559.47;5094760;28;20020;-59
2023/04/03 08:32:42;;;;;;;2.75;1.75;;;;;;;5.79;54.05;100559.22;5092410;28;20036;-60
2023/04/03 08:35:08;;;;;;;3.95;1.80;;;;;;;6.36;53.91;100567.72;5096524;28;20044;-59
2023/04/03 08:37:36;;;;;;;4.38;1.70;;;;;;;6.72;52.61;100561.69;5098147;28;20043;-59
2023/04/03 08:40:01;;;;;;;5.97;1.85;;;;;;;6.98;52.82;100563.84;5093729;28;20367;-59
2023/04/03 08:42:46;;;;;;;4.15;1.65;;;;;;;6.39;53.08;100572.69;5088035;28;20413;-59
2023/04/03 08:45:22;;;;;;;3.53;1.70;;;;;;;6.41;54.68;100568.00;5096363;28;20036;-59
2023/04/03 08:47:56;;;;;;;8.00;2.38;;;;;;;6.68;53.94;100570.03;5080812;27;20436;-60
2023/04/03 08:50:49;;;;;;;5.15;2.08;;;;;;;6.62;53.33;100569.97;5081159;28;20015;-59
2023/04/03 08:53:16;;;;;;;5.28;2.10;;;;;;;6.87;52.86;100573.16;5091704;28;20044;-59
2023/04/03 08:56:03;;;;;;;4.60;1.92;;;;;;;7.02;53.21;100568.63;5100452;28;20382;-59
2023/04/03 08:58:33;;;;;;;3.45;2.05;;;;;;;7.02;52.00;100576.63;5096553;28;20024;-59
2023/04/03 09:01:00;;;;;;;;;;;;;;;7.00;52.32;100573.31;5096536;28;20326;-59
2023/04/03 09:03:29;;;;;;;5.07;1.58;;;;;;;6.84;52.52;100576.19;5093899;27;19959;-60
2023/04/03 09:06:08;;;;;;;3.63;1.60;;;;;;;7.21;52.27;100577.88;5094416;28;20039;-61
2023/04/03 09:08:51;;;;;;;6.50;2.35;;;;;;;7.57;52.28;100569.88;5095367;28;20028;-59
2023/04/03 09:11:38;;;;;;;4.80;2.10;;;;;;;7.89;51.99;100589.06;5083051;28;20063;-58
2023/04/03 09:14:17;;;;;;;6.25;2.00;;;;;;;8.02;52.23;100572.31;5094678;28;20170;-59
2023/04/03 09:16:56;;;;;;;3.67;1.95;;;;;;;8.36;50.91;100590.28;5097809;28;20028;-59
2023/04/03 09:19:30;;;;;;;7.65;2.30;;;;;;;6.90;52.38;100578.13;5100303;28;20042;-60
2023/04/03 09:21:57;;;;;;;4.30;1.80;;;;;;;6.22;55.89;100586.16;5088875;28;20063;-60
2023/04/03 09:24:22;;;;;;;6.60;2.50;;;;;;;5.60;55.50;100571.16;5091360;28;20093;-60
2023/04/03 09:26:54;;;;;;;4.15;2.38;;;;;;;5.30;56.45;100580.84;5098934;28;20039;-60
2023/04/03 09:29:21;;;;;;;4.93;2.00;;;;;;;5.60;56.67;100581.00;5109780;28;20035;-60
2023/04/03 09:31:48;;;;;;;5.57;2.50;;;;;;;6.70;54.17;100568.00;5094999;28;20032;-60
2023/04/03 09:34:23;;;;;;;4.80;1.85;;;;;;;6.53;52.65;100566.53;5089139;28;20028;-60
2023/04/03 09:36:55;;;;;;;3.58;1.88;;;;;;;5.57;55.29;100581.34;5083590;28;20031;-60
2023/04/03 09:39:22;;;;;;;4.50;2.00;;;;;;;5.33;56.24;100585.81;5098543;28;20088;-60
2023/04/03 09:42:01;;;;;;;4.55;1.92;;;;;;;5.30;56.70;100580.03;5096576;28;20020;-60
2023/04/03 09:44:36;;;;;;;4.63;1.95;;;;;;;4.62;57.72;100584.09;5106581;28;20028;-59
2023/04/03 09:47:27;;;;;;;4.15;1.67;;;;;;;4.83;58.67;100589.69;5099276;28;20031;-59
2023/04/03 09:50:14;;;;;;;3.35;1.98;;;;;;;5.52;58.41;100573.91;5097787;28;20042;-59
2023/04/03 09:52:41;;;;;;;2.40;1.52;;;;;;;6.04;55.20;100573.19;5101968;28;20027;-60
2023/04/03 09:55:08;;;;;;;5.25;2.10;;;;;;;6.10;55.52;100576.16;5097815;28;20116;-60
2023/04/03 09:57:33;;;;;;;4.57;1.70;;;;;;;7.27;53.63;100584.31;5102216;28;20066;-60
2023/04/03 10:00:00;;;;;;;2.25;1.50;;;;;;;6.98;51.74;100586.00;5093928;28;20078;-59
2023/04/03 10:02:35;;;;;;;6.63;1.75;;;;;;;6.72;51.96;100583.00;5088766;28;20429;-60
2023/04/03 10:05:01;;;;;;;4.88;2.00;;;;;;;6.62;53.20;100584.09;5092046;28;20038;-59
2023/04/03 10:07:33;;;;;;;4.95;1.70;;;;;;;6.67;52.15;100579.06;5103904;28;20020;-59
2023/04/03 10:10:01;;;;;;;3.33;1.60;;;;;;;6.84;51.74;100573.50;5103049;28;20027;-59
2023/04/03 10:12:27;;;;;;;3.90;1.67;;;;;;;7.05;50.87;100575.44;5097584;28;20027;-59
2023/04/03 10:14:52;;;;;;;4.57;2.13;;;;;;;7.02;51.63;100575.81;5099388;28;20051;-60
2023/04/03 10:17:24;;;;;;;6.70;1.80;;;;;;;6.82;52.51;100567.56;5102261;28;20031;-59
2023/04/03 10:20:08;;;;;;;3.42;1.65;;;;;;;7.23;51.77;100593.69;5105909;28;20032;-60
2023/04/03 10:23:00;;;;;;;2.50;1.60;;;;;;;6.03;52.82;100578.69;5100773;28;20154;-60
2023/04/03 10:25:50;;;;;;;4.45;1.80;;;;;;;6.70;50.20;100568.00;5094450;28;20303;-60
2023/04/03 10:28:24;;;;;;;5.03;2.10;;;;;;;6.98;47.79;100574.53;5102564;28;20155;-60
2023/04/03 10:31:29;;;;;;;6.40;2.10;;;;;;;7.41;48.33;100571.94;5098059;28;20028;-60
2023/04/03 10:34:18;;;;;;;6.25;1.85;;;;;;;6.67;48.73;100567.56;5100808;28;20482;-60
2023/04/03 10:37:03;;;;;;;4.85;2.00;;;;;;;7.05;48.12;100565.59;5099602;28;20032;-60
2023/04/03 10:39:47;;;;;;;4.57;1.80;;;;;;;7.54;48.64;100570.25;5100039;28;20043;-60
2023/04/03 10:42:19;;;;;;;3.83;1.90;;;;;;;7.96;47.51;100583.75;5090935;28;20032;-60
2023/04/03 10:45:01;;;;;;;5.70;2.10;;;;;;;7.22;48.72;100570.72;5090686;28;20046;-60
2023/04/03 10:47:51;;;;;;;4.55;2.03;;;;;;;7.17;49.47;100579.28;5099240;28;20019;-60
2023/04/03 10:50:50;;;;;;;2.60;1.73;;;;;;;6.87;48.92;100573.16;5102721;28;20032;-59
2023/04/03 10:53:34;;;;;;;2.42;1.70;;;;;;;6.85;48.13;100578.66;5097000;28;20042;-59
2023/04/03 10:56:12;;;;;;;4.95;1.98;;;;;;;7.10;47.13;100568.53;5102760;28;20064;-60
2023/04/03 10:58:49;;;;;;;8.15;2.10;;;;;;;7.43;47.21;100567.25;5100218;28;20023;-60
2023/04/03 11:01:19;;;;;;;3.10;1.92;;;;;;;6.89;48.72;100574.63;5104949;28;20032;-60
2023/04/03 11:03:47;;;;;;;3.13;1.70;;;;;;;6.61;48.97;100569.09;5085014;28;20031;-59
2023/04/03 11:06:14;;;;;;;4.55;1.95;;;;;;;6.15;49.20;100568.44;5101180;28;20111;-59
2023/04/03 11:09:01;;;;;;;4.88;1.70;;;;;;;5.94;48.61;100566.44;5080526;28;20016;-60
2023/04/03 11:11:29;;;;;;;2.85;1.70;;;;;;;5.89;49.20;100563.47;5098307;28;20020;-60
2023/04/03 11:13:56;;;;;;;4.93;1.98;;;;;;;6.04;48.58;100553.72;5075314;28;20688;-60
2023/04/03 11:16:27;;;;;;;3.90;2.03;;;;;;;6.06;49.52;100554.38;5100982;28;20039;-59
2023/04/03 11:19:13;;;;;;;5.32;2.10;;;;;;;6.31;49.58;100543.47;5102544;28;20058;-59
2023/04/03 11:21:44;;;;;;;4.90;2.40;;;;;;;6.55;50.74;100543.22;5086727;28;20015;-60
2023/04/03 11:24:31;;;;;;;6.20;2.25;;;;;;;6.05;49.91;100537.56;5080926;28;20074;-59
2023/04/03 11:26:56;;;;;;;5.28;2.10;;;;;;;6.49;50.30;100533.31;5090629;28;20074;-60
2023/04/03 11:29:26;;;;;;;6.70;2.40;;;;;;;6.80;49.72;100529.63;5095604;28;20455;-59
2023/04/03 11:32:26;;;;;;;5.95;2.90;;;;;;;6.57;49.73;100525.22;5096140;28;20023;-60
2023/04/03 11:34:53;;;;;;;7.72;1.80;;;;;;;5.94;47.21;100545.16;5100925;28;20031;-59
2023/04/03 11:37:40;;;;;;;5.47;1.80;;;;;;;5.93;48.82;100531.00;5084248;28;20497;-59
2023/04/03 11:40:15;;;;;;;3.20;1.80;;;;;;;5.80;49.05;100536.94;5086412;28;20081;-59